createdAt,value
2018-08-03T00:01:03.142Z,99.90
2018-08-03T00:03:30.531Z,99.90
2018-08-03T00:05:57.949Z,99.90
2018-08-03T00:08:25.385Z,99.90
2018-08-03T00:10:52.829Z,99.90
2018-08-03T00:13:20.248Z,99.90
2018-08-03T00:15:47.664Z,99.90
2018-08-03T00:18:15.126Z,99.90
2018-08-03T00:23:09.941Z,99.90
2018-08-03T00:28:04.837Z,99.90
2018-08-03T00:30:32.277Z,99.90
2018-08-03T00:32:59.734Z,99.90
2018-08-03T00:35:27.171Z,99.90
2018-08-03T00:37:54.593Z,99.90
2018-08-03T00:40:22.176Z,99.90
2018-08-03T00:42:49.660Z,99.90
2018-08-03T00:45:17.073Z,99.90
2018-08-03T00:47:44.499Z,99.90
2018-08-03T00:50:11.895Z,99.90
2018-08-03T00:52:39.298Z,99.90
2018-08-03T00:55:06.752Z,99.90
2018-08-03T00:57:34.165Z,99.90
2018-08-03T01:00:01.594Z,99.90
2018-08-03T01:02:29.003Z,99.90
2018-08-03T01:04:56.481Z,99.90
2018-08-03T01:07:23.868Z,99.90
2018-08-03T01:09:52.908Z,99.90
2018-08-03T01:12:20.348Z,99.90
2018-08-03T01:14:47.760Z,99.90
2018-08-03T01:17:15.178Z,99.90
2018-08-03T01:19:42.581Z,99.90
2018-08-03T01:22:10.002Z,99.90
2018-08-03T01:24:37.403Z,99.90
2018-08-03T01:27:04.982Z,99.90
2018-08-03T01:29:32.387Z,99.90
2018-08-03T01:31:59.793Z,99.90
2018-08-03T01:34:27.238Z,99.90
2018-08-03T01:36:54.619Z,99.90
2018-08-03T01:39:22.043Z,99.90
2018-08-03T01:41:49.469Z,99.90
2018-08-03T01:44:16.869Z,99.90
2018-08-03T01:46:44.300Z,99.90
2018-08-03T01:49:11.708Z,99.90
2018-08-03T01:51:39.126Z,99.90
2018-08-03T01:54:06.550Z,99.90
2018-08-03T01:56:33.949Z,99.90
2018-08-03T01:59:01.388Z,99.90
2018-08-03T02:01:28.785Z,99.90
2018-08-03T02:03:56.193Z,99.90
2018-08-03T02:06:26.079Z,99.90
2018-08-03T02:08:53.468Z,99.90
2018-08-03T02:11:20.885Z,99.90
2018-08-03T02:13:48.329Z,99.90
2018-08-03T02:16:15.725Z,99.90
2018-08-03T02:18:43.135Z,99.90
2018-08-03T02:21:10.556Z,99.90
2018-08-03T02:23:37.964Z,99.90
2018-08-03T02:26:05.433Z,99.90
2018-08-03T02:28:32.863Z,99.90
2018-08-03T02:31:00.291Z,99.90
2018-08-03T02:33:27.721Z,99.90
2018-08-03T02:35:55.120Z,99.90
2018-08-03T02:38:22.595Z,99.90
2018-08-03T02:40:50.037Z,99.90
2018-08-03T02:43:17.447Z,99.90
2018-08-03T02:45:44.869Z,99.90
2018-08-03T02:48:12.274Z,99.90
2018-08-03T02:50:39.661Z,99.90
2018-08-03T02:53:08.194Z,99.90
2018-08-03T02:55:35.600Z,99.90
2018-08-03T02:58:03.037Z,99.90
2018-08-03T03:00:30.480Z,99.90
2018-08-03T03:02:57.902Z,99.90
2018-08-03T03:05:25.341Z,99.90
2018-08-03T03:07:52.770Z,99.90
2018-08-03T03:10:20.169Z,99.90
2018-08-03T03:12:47.602Z,99.90
2018-08-03T03:15:15.235Z,99.90
2018-08-03T03:17:42.649Z,99.90
2018-08-03T03:20:10.092Z,99.90
2018-08-03T03:22:37.468Z,99.90
2018-08-03T03:25:05.058Z,99.90
2018-08-03T03:27:32.449Z,99.90
2018-08-03T03:29:59.889Z,99.90
2018-08-03T03:32:27.283Z,99.90
2018-08-03T03:34:54.657Z,99.90
2018-08-03T03:37:22.061Z,99.90
2018-08-03T03:39:49.472Z,99.90
2018-08-03T03:42:16.901Z,99.90
2018-08-03T03:44:44.338Z,99.90
2018-08-03T03:47:11.757Z,99.90
2018-08-03T03:49:39.196Z,99.90
2018-08-03T03:52:06.851Z,99.90
2018-08-03T03:54:34.292Z,99.90
2018-08-03T03:57:01.701Z,99.90
2018-08-03T03:59:29.081Z,99.90
2018-08-03T04:01:56.531Z,99.90
2018-08-03T04:04:23.933Z,99.90
2018-08-03T04:06:51.374Z,99.90
2018-08-03T04:09:18.781Z,99.90
2018-08-03T04:11:46.210Z,99.90
2018-08-03T04:16:41.032Z,99.90
2018-08-03T04:19:08.444Z,99.90
2018-08-03T04:21:35.857Z,99.90
2018-08-03T04:24:03.309Z,99.90
2018-08-03T04:26:30.891Z,99.90
2018-08-03T04:28:58.468Z,99.90
2018-08-03T04:31:26.158Z,99.90
2018-08-03T04:33:53.552Z,99.90
2018-08-03T04:36:20.961Z,99.90
2018-08-03T04:38:48.387Z,99.90
2018-08-03T04:41:15.811Z,99.90
2018-08-03T04:43:43.256Z,99.90
2018-08-03T04:46:10.794Z,99.90
2018-08-03T04:48:38.242Z,99.90
2018-08-03T04:53:33.046Z,99.90
2018-08-03T04:56:00.781Z,99.90
2018-08-03T04:58:28.170Z,99.90
2018-08-03T05:00:55.609Z,99.90
2018-08-03T05:03:23.031Z,99.90
2018-08-03T05:05:50.491Z,99.90
2018-08-03T05:08:17.982Z,99.90
2018-08-03T05:10:45.427Z,99.90
2018-08-03T05:13:13.082Z,99.90
2018-08-03T05:15:40.480Z,99.90
2018-08-03T05:18:08.197Z,99.90
2018-08-03T05:20:35.644Z,99.90
2018-08-03T05:25:30.463Z,99.90
2018-08-03T05:30:25.313Z,99.90
2018-08-03T05:32:52.707Z,99.90
2018-08-03T05:35:20.168Z,99.90
2018-08-03T05:37:47.569Z,99.90
2018-08-03T05:40:15.008Z,99.90
2018-08-03T05:42:42.384Z,99.90
2018-08-03T05:45:09.875Z,99.90
2018-08-03T05:47:37.289Z,99.90
2018-08-03T05:50:05.101Z,99.90
2018-08-03T05:52:32.584Z,99.90
2018-08-03T05:54:59.924Z,99.90
2018-08-03T05:57:27.373Z,99.30
2018-08-03T05:59:55.079Z,97.00
2018-08-03T06:02:22.539Z,95.10
2018-08-03T06:04:49.958Z,93.50
2018-08-03T06:07:17.382Z,91.70
2018-08-03T06:09:44.839Z,91.30
2018-08-03T06:12:12.225Z,90.80
2018-08-03T06:14:39.621Z,89.30
2018-08-03T06:17:07.309Z,90.00
2018-08-03T06:19:34.712Z,90.10
2018-08-03T06:24:30.175Z,88.10
2018-08-03T06:26:57.566Z,89.30
2018-08-03T06:29:24.972Z,88.00
2018-08-03T06:31:52.371Z,85.00
2018-08-03T06:34:19.810Z,84.30
2018-08-03T06:36:47.218Z,83.30
2018-08-03T06:39:14.621Z,84.80
2018-08-03T06:41:42.609Z,87.30
2018-08-03T06:44:10.037Z,88.90
2018-08-03T06:46:37.537Z,91.10
2018-08-03T06:49:04.950Z,91.10
2018-08-03T06:51:32.418Z,91.40
2018-08-03T06:53:59.857Z,92.60
2018-08-03T06:56:27.485Z,93.80
2018-08-03T06:58:54.944Z,95.00
2018-08-03T07:01:22.336Z,97.40
2018-08-03T07:03:49.773Z,99.10
2018-08-03T07:06:17.205Z,99.90
2018-08-03T07:08:44.630Z,99.90
2018-08-03T07:11:12.027Z,99.90
2018-08-03T07:13:39.473Z,99.90
2018-08-03T07:16:06.909Z,99.90
2018-08-03T07:18:34.319Z,99.90
2018-08-03T07:21:01.728Z,99.90
2018-08-03T07:23:29.159Z,99.90
2018-08-03T07:25:56.592Z,99.90
2018-08-03T07:30:51.393Z,99.90
2018-08-03T07:35:46.181Z,99.90
2018-08-03T07:38:13.611Z,99.90
2018-08-03T07:40:41.089Z,99.90
2018-08-03T07:43:08.533Z,99.90
2018-08-03T07:45:35.924Z,99.90
2018-08-03T07:48:03.398Z,99.90
2018-08-03T07:50:30.797Z,99.90
2018-08-03T07:52:58.206Z,99.90
2018-08-03T07:55:25.653Z,99.90
2018-08-03T07:57:53.524Z,99.90
2018-08-03T08:00:21.029Z,99.90
2018-08-03T08:02:48.507Z,99.90
2018-08-03T08:05:15.942Z,99.90
2018-08-03T08:07:44.275Z,99.90
2018-08-03T08:10:11.705Z,99.90
2018-08-03T08:12:39.162Z,99.90
2018-08-03T08:15:06.615Z,99.90
2018-08-03T08:17:34.010Z,99.90
2018-08-03T08:20:01.435Z,99.90
2018-08-03T08:22:28.820Z,99.90
2018-08-03T08:24:56.807Z,99.90
2018-08-03T08:27:24.538Z,99.90
2018-08-03T08:29:51.966Z,99.90
2018-08-03T08:32:19.441Z,99.90
2018-08-03T08:34:46.854Z,99.90
2018-08-03T08:37:14.256Z,99.90
2018-08-03T08:39:41.718Z,99.90
2018-08-03T08:42:09.143Z,99.90
2018-08-03T08:44:36.571Z,99.90
2018-08-03T08:47:04.018Z,99.90
2018-08-03T08:49:31.437Z,99.90
2018-08-03T08:51:58.885Z,99.90
2018-08-03T08:54:26.341Z,99.90
2018-08-03T08:56:53.740Z,99.90
2018-08-03T08:59:21.190Z,99.90
2018-08-03T09:01:48.576Z,99.90
2018-08-03T09:04:16.030Z,99.90
2018-08-03T09:06:43.473Z,99.90
2018-08-03T09:11:39.110Z,99.90
2018-08-03T09:14:06.552Z,99.90
2018-08-03T09:16:34.005Z,99.90
2018-08-03T09:19:01.450Z,99.90
2018-08-03T09:21:28.915Z,99.90
2018-08-03T09:23:56.334Z,99.90
2018-08-03T09:26:23.734Z,99.90
2018-08-03T09:28:51.929Z,99.90
2018-08-03T09:31:19.340Z,99.90
2018-08-03T09:33:46.765Z,99.90
2018-08-03T09:36:14.157Z,99.90
2018-08-03T09:38:41.623Z,99.90
2018-08-03T09:41:09.032Z,99.90
2018-08-03T09:43:36.440Z,99.90
2018-08-03T09:46:03.919Z,99.90
2018-08-03T09:48:31.328Z,99.90
2018-08-03T09:50:58.752Z,99.90
2018-08-03T09:53:26.177Z,99.90
2018-08-03T09:55:53.585Z,99.90
2018-08-03T10:00:54.050Z,99.90
2018-08-03T10:03:21.470Z,99.90
2018-08-03T10:05:48.876Z,99.90
2018-08-03T10:08:16.269Z,99.90
2018-08-03T10:10:43.685Z,99.90
2018-08-03T10:13:11.072Z,99.90
2018-08-03T10:15:38.491Z,99.90
2018-08-03T10:18:05.903Z,99.90
2018-08-03T10:20:33.281Z,99.90
2018-08-03T10:23:00.730Z,99.90
2018-08-03T10:25:28.192Z,99.90
2018-08-03T10:27:55.625Z,99.90
2018-08-03T10:30:23.194Z,99.90
2018-08-03T10:32:50.619Z,99.90
2018-08-03T10:35:18.041Z,99.90
2018-08-03T10:37:45.444Z,99.90
2018-08-03T10:42:40.278Z,99.90
2018-08-03T10:45:07.727Z,99.90
2018-08-03T10:47:35.140Z,99.90
2018-08-03T10:50:02.559Z,99.90
2018-08-03T10:52:29.965Z,99.90
2018-08-03T10:54:57.344Z,99.90
2018-08-03T10:57:24.758Z,99.90
2018-08-03T10:59:52.164Z,99.90
2018-08-03T11:02:19.638Z,99.90
2018-08-03T11:04:47.065Z,99.90
2018-08-03T11:07:14.468Z,99.90
2018-08-03T11:09:41.870Z,99.90
2018-08-03T11:12:09.292Z,99.90
2018-08-03T11:14:36.789Z,99.90
2018-08-03T11:17:04.215Z,99.90
2018-08-03T11:19:31.632Z,99.90
2018-08-03T11:21:59.069Z,99.90
2018-08-03T11:24:26.459Z,99.90
2018-08-03T11:26:53.900Z,99.90
2018-08-03T11:29:21.300Z,99.90
2018-08-03T11:31:48.698Z,99.90
2018-08-03T11:34:16.101Z,99.90
2018-08-03T11:36:43.476Z,99.90
2018-08-03T11:39:11.617Z,99.90
2018-08-03T11:41:39.044Z,99.90
2018-08-03T11:44:06.727Z,99.90
2018-08-03T11:46:34.175Z,99.90
2018-08-03T11:49:01.602Z,99.90
2018-08-03T11:51:28.984Z,99.90
2018-08-03T11:53:56.410Z,99.90
2018-08-03T11:56:23.825Z,99.90
2018-08-03T11:58:51.453Z,99.90
2018-08-03T12:01:18.890Z,99.90
2018-08-03T12:03:46.322Z,99.90
2018-08-03T12:06:13.735Z,99.90
2018-08-03T12:08:41.172Z,99.90
2018-08-03T12:11:08.601Z,99.90
2018-08-03T12:13:36.036Z,99.80
2018-08-03T12:16:03.445Z,99.70
2018-08-03T12:18:30.857Z,98.80
2018-08-03T12:20:58.295Z,98.40
2018-08-03T12:23:25.756Z,98.60
2018-08-03T12:25:53.139Z,98.10
2018-08-03T12:28:20.552Z,98.40
2018-08-03T12:30:47.985Z,97.80
2018-08-03T12:33:15.415Z,97.40
2018-08-03T12:35:42.817Z,96.90
2018-08-03T12:38:10.228Z,96.70
2018-08-03T12:40:37.612Z,95.60
2018-08-03T12:43:05.045Z,96.10
2018-08-03T12:45:34.146Z,95.30
2018-08-03T12:47:59.868Z,95.60
2018-08-03T12:50:27.307Z,94.50
2018-08-03T12:52:54.841Z,95.20
2018-08-03T12:55:22.281Z,93.90
2018-08-03T12:57:49.688Z,94.60
2018-08-03T13:00:17.102Z,95.00
2018-08-03T13:02:44.581Z,94.30
2018-08-03T13:05:11.980Z,94.30
2018-08-03T13:07:39.636Z,93.20
2018-08-03T13:10:07.153Z,93.40
2018-08-03T13:12:34.579Z,92.90
2018-08-03T13:15:02.186Z,93.10
2018-08-03T13:17:29.623Z,92.90
2018-08-03T13:22:24.412Z,92.60
2018-08-03T13:24:52.423Z,92.00
2018-08-03T13:27:20.192Z,91.20
2018-08-03T13:29:47.566Z,91.60
2018-08-03T13:32:15.004Z,91.40
2018-08-03T13:34:43.254Z,90.80
2018-08-03T13:37:10.649Z,90.00
2018-08-03T13:39:38.083Z,90.10
2018-08-03T13:42:05.509Z,90.30
2018-08-03T13:44:32.956Z,90.30
2018-08-03T13:47:00.386Z,89.40
2018-08-03T13:49:27.807Z,89.50
2018-08-03T13:51:55.229Z,89.20
2018-08-03T13:54:22.660Z,88.60
2018-08-03T13:56:50.093Z,87.80
2018-08-03T13:59:17.489Z,88.70
2018-08-03T14:01:56.424Z,87.60
2018-08-03T14:04:23.953Z,87.50
2018-08-03T14:06:51.367Z,89.00
2018-08-03T14:09:18.801Z,85.10
2018-08-03T14:11:46.221Z,87.20
2018-08-03T14:14:13.642Z,86.60
2018-08-03T14:16:41.065Z,87.50
2018-08-03T14:19:08.490Z,86.10
2018-08-03T14:21:35.893Z,86.70
2018-08-03T14:24:03.378Z,86.40
2018-08-03T14:26:31.726Z,84.40
2018-08-03T14:28:59.128Z,85.40
2018-08-03T14:31:26.616Z,83.90
2018-08-03T14:33:53.987Z,82.20
2018-08-03T14:36:21.416Z,82.00
2018-08-03T14:38:48.825Z,83.10
2018-08-03T14:41:16.282Z,83.30
2018-08-03T14:43:43.702Z,82.90
2018-08-03T14:46:11.174Z,82.80
2018-08-03T14:48:38.625Z,82.60
2018-08-03T14:51:06.260Z,83.60
2018-08-03T14:53:33.672Z,82.80
2018-08-03T14:56:01.096Z,84.00
2018-08-03T14:58:28.526Z,83.70
2018-08-03T15:03:23.336Z,83.80
2018-08-03T15:05:50.792Z,81.60
2018-08-03T15:08:18.235Z,81.70
2018-08-03T15:10:45.664Z,84.40
2018-08-03T15:13:13.085Z,84.10
2018-08-03T15:15:40.480Z,83.10
2018-08-03T15:18:07.969Z,82.40
2018-08-03T15:20:35.403Z,82.30
2018-08-03T15:23:02.825Z,82.60
2018-08-03T15:25:30.267Z,83.20
2018-08-03T15:27:57.690Z,83.90
2018-08-03T15:30:25.113Z,84.60
2018-08-03T15:32:52.574Z,84.70
2018-08-03T15:35:19.993Z,83.50
2018-08-03T15:37:47.396Z,83.10
2018-08-03T15:40:14.801Z,83.90
2018-08-03T15:42:42.252Z,84.80
2018-08-03T15:45:09.673Z,83.80
2018-08-03T15:47:37.316Z,84.00
2018-08-03T15:50:04.904Z,85.00
2018-08-03T15:52:32.353Z,84.30
2018-08-03T15:54:59.736Z,84.80
2018-08-03T15:57:27.140Z,84.10
2018-08-03T15:59:54.569Z,84.80
2018-08-03T16:02:21.985Z,85.30
2018-08-03T16:04:49.389Z,84.60
2018-08-03T16:07:16.862Z,85.80
2018-08-03T16:09:44.290Z,85.70
2018-08-03T16:12:11.716Z,85.40
2018-08-03T16:14:39.124Z,85.80
2018-08-03T16:17:06.566Z,86.80
2018-08-03T16:19:33.972Z,86.40
2018-08-03T16:22:01.388Z,87.80
2018-08-03T16:24:28.817Z,86.50
2018-08-03T16:26:56.435Z,87.70
2018-08-03T16:29:23.902Z,86.40
2018-08-03T16:31:51.317Z,86.40
2018-08-03T16:34:18.729Z,87.30
2018-08-03T16:36:46.142Z,86.70
2018-08-03T16:39:13.591Z,87.50
2018-08-03T16:41:41.025Z,88.20
2018-08-03T16:44:08.474Z,88.80
2018-08-03T16:46:35.977Z,90.00
2018-08-03T16:49:03.437Z,90.00
2018-08-03T16:51:30.914Z,88.30
2018-08-03T16:53:58.370Z,86.30
2018-08-03T16:56:25.797Z,86.60
2018-08-03T16:58:53.225Z,86.60
2018-08-03T17:01:20.645Z,85.90
2018-08-03T17:03:48.293Z,86.60
2018-08-03T17:06:15.712Z,87.20
2018-08-03T17:11:10.530Z,87.60
2018-08-03T17:13:38.134Z,87.80
2018-08-03T17:16:06.181Z,88.60
2018-08-03T17:18:33.613Z,88.10
2018-08-03T17:21:00.996Z,88.60
2018-08-03T17:23:28.466Z,89.70
2018-08-03T17:25:55.889Z,89.70
2018-08-03T17:28:23.303Z,90.00
2018-08-03T17:30:51.669Z,90.10
2018-08-03T17:33:19.124Z,90.50
2018-08-03T17:35:46.512Z,90.10
2018-08-03T17:38:13.921Z,90.40
2018-08-03T17:40:41.353Z,90.50
2018-08-03T17:43:08.774Z,90.80
2018-08-03T17:45:36.219Z,90.40
2018-08-03T17:48:03.645Z,90.40
2018-08-03T17:50:31.098Z,90.90
2018-08-03T17:52:58.559Z,90.90
2018-08-03T17:55:25.948Z,91.00
2018-08-03T17:57:53.400Z,90.90
2018-08-03T18:00:20.821Z,90.80
2018-08-03T18:02:48.279Z,91.00
2018-08-03T18:05:15.670Z,91.40
2018-08-03T18:07:43.060Z,91.50
2018-08-03T18:10:10.493Z,91.60
2018-08-03T18:12:37.900Z,91.90
2018-08-03T18:15:06.109Z,92.00
2018-08-03T18:17:33.533Z,92.10
2018-08-03T18:20:00.957Z,92.30
2018-08-03T18:22:28.370Z,92.70
2018-08-03T18:24:55.801Z,93.30
2018-08-03T18:27:23.234Z,93.50
2018-08-03T18:29:50.682Z,93.60
2018-08-03T18:32:18.069Z,93.90
2018-08-03T18:34:45.562Z,94.30
2018-08-03T18:37:12.979Z,94.20
2018-08-03T18:39:40.437Z,94.90
2018-08-03T18:42:07.868Z,94.90
2018-08-03T18:44:35.269Z,95.40
2018-08-03T18:47:02.684Z,95.60
2018-08-03T18:49:30.097Z,95.60
2018-08-03T18:51:57.513Z,95.90
2018-08-03T18:54:24.962Z,96.70
2018-08-03T18:56:52.466Z,97.00
2018-08-03T18:59:19.914Z,96.70
2018-08-03T19:01:47.337Z,97.20
2018-08-03T19:04:14.762Z,97.50
2018-08-03T19:06:42.164Z,97.80
2018-08-03T19:09:09.769Z,98.80
2018-08-03T19:11:37.264Z,99.30
2018-08-03T19:14:04.687Z,99.70
2018-08-03T19:16:32.120Z,99.90
2018-08-03T19:18:59.542Z,99.90
2018-08-03T19:21:26.948Z,99.90
2018-08-03T19:23:54.392Z,99.90
2018-08-03T19:26:21.789Z,99.90
2018-08-03T19:28:49.197Z,99.90
2018-08-03T19:31:16.616Z,99.90
2018-08-03T19:33:44.022Z,99.90
2018-08-03T19:36:11.481Z,99.90
2018-08-03T19:38:38.894Z,99.90
2018-08-03T19:41:06.337Z,99.90
2018-08-03T19:43:33.717Z,99.90
2018-08-03T19:46:01.100Z,99.90
2018-08-03T19:48:28.509Z,99.90
2018-08-03T19:50:55.931Z,99.90
2018-08-03T19:55:50.718Z,99.90
2018-08-03T19:58:18.158Z,99.90
2018-08-03T20:00:45.603Z,99.90
2018-08-03T20:03:13.081Z,99.90
2018-08-03T20:05:40.473Z,99.90
2018-08-03T20:08:07.906Z,99.90
2018-08-03T20:10:35.337Z,99.90
2018-08-03T20:13:02.826Z,99.90
2018-08-03T20:15:30.243Z,99.90
2018-08-03T20:17:57.713Z,99.90
2018-08-03T20:20:25.140Z,99.90
2018-08-03T20:22:52.576Z,99.90
2018-08-03T20:25:20.010Z,99.90
2018-08-03T22:43:20.720Z,99.90
2018-08-03T23:27:44.087Z,99.90
2018-08-03T23:59:09.056Z,99.90
